Airfield :
LOGIN :

Register | Disclaimer

   EN    FR    IT 

 










Legend :    VFR   Marginal VFR   IFR   Intensive IFR   Very Intensive IFR
Visi :
Ceiling :
>= 8 km
>= 3000ft
5 to 8 km
1000 to 3000 ft
1500m to 5 km
500 to 1000 ft
800 to 1500m
200 to 500 ft
< 800m
< 200 ft
Symbols :   Thunderstorms  Fog  Heavy snow  Heavy precipitations  Wind > 20 kt
SIGMETs :     Misc.  Thunderstorms  Icing  Turbulence  Mountain Waves  Volcanic Ashes






- Airport Elevation : 359 ft
- IATA code : BVA


LFOB - Beauvais

CURRENT METAR :
  • 220400Z AUTO 35002KT 3700 BR VV/// M04/M05 Q1037 BECMG 0500 FZFG

EXPIRED METARs :
  • 220330Z AUTO 36004KT 5000 BR VV/// M04/M04 Q1037 BECMG 0500 FZFG
  • 220300Z AUTO 33001KT 7000 NSC M04/M05 Q1037 BECMG 0500 FZFG VV///
  • 220230Z AUTO 00000KT CAVOK M04/M04 Q1037 BECMG 0500 FZFG VV///
  • 220200Z AUTO 33006KT 8000 NSC M04/M05 Q1037 BECMG 3000 BR
  • 220130Z AUTO 32007KT 7000 NSC M05/M05 Q1037 BECMG 3000 BR

TAF AMD TAF LFOB
Valid from the 22 at 03:00 until the 23 at 00:00 UTC


220350Z 2203/2224 VRB03KT 5000 BR NSC
BECMG 2203/2207 0500 FZFG VV///
TEMPO 2207/2211 0200
BECMG 2211/2214 6000 NSW BKN013
TEMPO 2214/2217 NSC
BECMG 2218/2221 1200 BR OVC003
PROB40 2221/2224 0500 FG VV///
ATIS : +33 3 44 11 49 28



MET'MAP, your aeronautical weather chart ! - Copyright ORBIFLY December 2007 - Disclaimer

ORBIFLY MET'MAP TEAM :

Programming & Development : Alexandra Zaïnal
Concept & original design : Baudouin d'Aumeries
Assistance for programming : Marc-Olivier Méhu
Technical & hardware support : Manuel Goepfert

Contact : metmap@orbifly.com




SOURCES & CREDITS :

   NOAA